sensor_id;sensor_type;location;lat;lon;timestamp;temperature;humidity
41904;DHT22;27586;51.124;4.182;2023-04-24T00:00:01;10.50;99.90
41904;DHT22;27586;51.124;4.182;2023-04-24T00:02:28;10.50;99.90
41904;DHT22;27586;51.124;4.182;2023-04-24T00:04:54;10.50;99.90
41904;DHT22;27586;51.124;4.182;2023-04-24T00:07:19;10.50;99.90
41904;DHT22;27586;51.124;4.182;2023-04-24T00:09:45;10.50;99.90
41904;DHT22;27586;51.124;4.182;2023-04-24T00:12:11;10.40;99.90
41904;DHT22;27586;51.124;4.182;2023-04-24T00:14:37;10.40;99.90
41904;DHT22;27586;51.124;4.182;2023-04-24T00:17:03;10.50;99.90
41904;DHT22;27586;51.124;4.182;2023-04-24T00:19:29;10.50;99.90
41904;DHT22;27586;51.124;4.182;2023-04-24T00:21:55;10.60;99.90
41904;DHT22;27586;51.124;4.182;2023-04-24T00:24:21;10.60;99.90
41904;DHT22;27586;51.124;4.182;2023-04-24T00:26:47;10.40;99.90
41904;DHT22;27586;51.124;4.182;2023-04-24T00:29:12;10.40;99.90
41904;DHT22;27586;51.124;4.182;2023-04-24T00:31:38;10.40;99.90
41904;DHT22;27586;51.124;4.182;2023-04-24T00:34:05;10.40;99.90
41904;DHT22;27586;51.124;4.182;2023-04-24T00:36:31;10.40;99.90
41904;DHT22;27586;51.124;4.182;2023-04-24T00:38:58;10.40;99.90
41904;DHT22;27586;51.124;4.182;2023-04-24T00:41:25;10.40;99.90
41904;DHT22;27586;51.124;4.182;2023-04-24T00:43:52;10.50;99.90
41904;DHT22;27586;51.124;4.182;2023-04-24T00:46:18;10.40;99.90
41904;DHT22;27586;51.124;4.182;2023-04-24T00:48:44;10.50;99.90
41904;DHT22;27586;51.124;4.182;2023-04-24T00:51:10;10.40;99.90
41904;DHT22;27586;51.124;4.182;2023-04-24T00:53:35;10.40;99.90
41904;DHT22;27586;51.124;4.182;2023-04-24T00:56:02;10.50;99.90
41904;DHT22;27586;51.124;4.182;2023-04-24T00:58:28;10.40;99.90
41904;DHT22;27586;51.124;4.182;2023-04-24T01:00:54;10.40;99.90
41904;DHT22;27586;51.124;4.182;2023-04-24T01:03:26;10.30;99.90
41904;DHT22;27586;51.124;4.182;2023-04-24T01:05:55;10.30;99.90
41904;DHT22;27586;51.124;4.182;2023-04-24T01:08:26;10.30;99.90
41904;DHT22;27586;51.124;4.182;2023-04-24T01:10:52;10.30;99.90
41904;DHT22;27586;51.124;4.182;2023-04-24T01:13:19;10.40;99.90
41904;DHT22;27586;51.124;4.182;2023-04-24T01:15:45;10.30;99.90
41904;DHT22;27586;51.124;4.182;2023-04-24T01:18:11;10.30;99.90
41904;DHT22;27586;51.124;4.182;2023-04-24T01:20:39;10.30;99.90
41904;DHT22;27586;51.124;4.182;2023-04-24T01:23:09;10.20;99.90
41904;DHT22;27586;51.124;4.182;2023-04-24T01:25:35;10.20;99.90
41904;DHT22;27586;51.124;4.182;2023-04-24T01:28:01;10.20;99.90
41904;DHT22;27586;51.124;4.182;2023-04-24T01:30:27;10.20;99.90
41904;DHT22;27586;51.124;4.182;2023-04-24T01:32:53;10.20;99.90
41904;DHT22;27586;51.124;4.182;2023-04-24T01:35:19;10.20;99.90
41904;DHT22;27586;51.124;4.182;2023-04-24T01:37:45;10.30;99.90
41904;DHT22;27586;51.124;4.182;2023-04-24T01:40:11;10.30;99.90
41904;DHT22;27586;51.124;4.182;2023-04-24T01:42:37;10.30;99.90
41904;DHT22;27586;51.124;4.182;2023-04-24T01:45:04;10.40;99.90
41904;DHT22;27586;51.124;4.182;2023-04-24T01:47:31;10.40;99.90
41904;DHT22;27586;51.124;4.182;2023-04-24T01:49:57;10.50;99.90
41904;DHT22;27586;51.124;4.182;2023-04-24T01:52:23;10.40;99.90
41904;DHT22;27586;51.124;4.182;2023-04-24T01:54:49;10.40;99.90
41904;DHT22;27586;51.124;4.182;2023-04-24T01:57:15;10.40;99.90
41904;DHT22;27586;51.124;4.182;2023-04-24T01:59:41;10.20;99.90
41904;DHT22;27586;51.124;4.182;2023-04-24T02:02:07;10.20;99.90
41904;DHT22;27586;51.124;4.182;2023-04-24T02:04:33;10.20;99.90
41904;DHT22;27586;51.124;4.182;2023-04-24T02:06:58;10.10;99.90
41904;DHT22;27586;51.124;4.182;2023-04-24T02:09:24;10.10;99.90
41904;DHT22;27586;51.124;4.182;2023-04-24T02:11:50;10.10;99.90
41904;DHT22;27586;51.124;4.182;2023-04-24T02:14:16;10.00;99.90
41904;DHT22;27586;51.124;4.182;2023-04-24T02:16:42;10.10;99.90
41904;DHT22;27586;51.124;4.182;2023-04-24T02:19:07;10.20;99.90
41904;DHT22;27586;51.124;4.182;2023-04-24T02:21:33;10.10;99.90
41904;DHT22;27586;51.124;4.182;2023-04-24T02:23:59;10.10;99.90
41904;DHT22;27586;51.124;4.182;2023-04-24T02:26:25;10.00;99.90
41904;DHT22;27586;51.124;4.182;2023-04-24T02:28:50;9.90;99.90
41904;DHT22;27586;51.124;4.182;2023-04-24T02:31:16;9.90;99.90
41904;DHT22;27586;51.124;4.182;2023-04-24T02:33:42;10.00;99.90
41904;DHT22;27586;51.124;4.182;2023-04-24T02:36:07;9.90;99.90
41904;DHT22;27586;51.124;4.182;2023-04-24T02:38:33;10.00;99.90
41904;DHT22;27586;51.124;4.182;2023-04-24T02:40:59;9.90;99.90
41904;DHT22;27586;51.124;4.182;2023-04-24T02:43:26;9.90;99.90
41904;DHT22;27586;51.124;4.182;2023-04-24T02:45:51;9.90;99.90
41904;DHT22;27586;51.124;4.182;2023-04-24T02:48:17;9.90;99.90
41904;DHT22;27586;51.124;4.182;2023-04-24T02:50:42;9.90;99.90
41904;DHT22;27586;51.124;4.182;2023-04-24T02:53:08;9.90;99.90
41904;DHT22;27586;51.124;4.182;2023-04-24T02:55:34;9.80;99.90
41904;DHT22;27586;51.124;4.182;2023-04-24T02:57:59;9.80;99.90
41904;DHT22;27586;51.124;4.182;2023-04-24T03:00:25;9.90;99.90
41904;DHT22;27586;51.124;4.182;2023-04-24T03:02:51;9.90;99.90
41904;DHT22;27586;51.124;4.182;2023-04-24T03:05:17;9.80;99.90
41904;DHT22;27586;51.124;4.182;2023-04-24T03:07:42;9.90;99.90
41904;DHT22;27586;51.124;4.182;2023-04-24T03:10:08;9.90;99.90
41904;DHT22;27586;51.124;4.182;2023-04-24T03:12:34;9.90;99.90
41904;DHT22;27586;51.124;4.182;2023-04-24T03:15:00;9.80;99.90
41904;DHT22;27586;51.124;4.182;2023-04-24T03:17:25;9.80;99.90
41904;DHT22;27586;51.124;4.182;2023-04-24T03:19:51;9.80;99.90
41904;DHT22;27586;51.124;4.182;2023-04-24T03:22:17;9.90;99.90
41904;DHT22;27586;51.124;4.182;2023-04-24T03:24:42;9.90;99.90
41904;DHT22;27586;51.124;4.182;2023-04-24T03:27:08;10.00;99.90
41904;DHT22;27586;51.124;4.182;2023-04-24T03:29:34;10.00;99.90
41904;DHT22;27586;51.124;4.182;2023-04-24T03:31:59;10.00;99.90
41904;DHT22;27586;51.124;4.182;2023-04-24T03:34:25;10.00;99.90
41904;DHT22;27586;51.124;4.182;2023-04-24T03:36:51;10.10;99.90
41904;DHT22;27586;51.124;4.182;2023-04-24T03:39:18;10.10;99.90
41904;DHT22;27586;51.124;4.182;2023-04-24T03:41:43;10.00;99.90
41904;DHT22;27586;51.124;4.182;2023-04-24T03:44:09;10.10;99.90
41904;DHT22;27586;51.124;4.182;2023-04-24T03:46:35;10.10;99.90
41904;DHT22;27586;51.124;4.182;2023-04-24T03:49:00;10.00;99.90
41904;DHT22;27586;51.124;4.182;2023-04-24T03:51:26;9.90;99.90
41904;DHT22;27586;51.124;4.182;2023-04-24T03:53:53;9.90;99.90
41904;DHT22;27586;51.124;4.182;2023-04-24T03:56:19;9.90;99.90
41904;DHT22;27586;51.124;4.182;2023-04-24T03:58:45;9.90;99.90
41904;DHT22;27586;51.124;4.182;2023-04-24T04:01:10;9.90;99.90
41904;DHT22;27586;51.124;4.182;2023-04-24T04:03:37;9.90;99.90
41904;DHT22;27586;51.124;4.182;2023-04-24T04:06:03;9.90;99.90
41904;DHT22;27586;51.124;4.182;2023-04-24T04:08:28;9.80;99.90
41904;DHT22;27586;51.124;4.182;2023-04-24T04:10:54;9.80;99.90
41904;DHT22;27586;51.124;4.182;2023-04-24T04:13:20;9.80;99.90
41904;DHT22;27586;51.124;4.182;2023-04-24T04:15:45;9.80;99.90
41904;DHT22;27586;51.124;4.182;2023-04-24T04:18:11;9.80;99.90
41904;DHT22;27586;51.124;4.182;2023-04-24T04:20:37;9.80;99.90
41904;DHT22;27586;51.124;4.182;2023-04-24T04:23:02;9.80;99.90
41904;DHT22;27586;51.124;4.182;2023-04-24T04:25:28;9.80;99.90
41904;DHT22;27586;51.124;4.182;2023-04-24T04:27:54;9.70;99.90
41904;DHT22;27586;51.124;4.182;2023-04-24T04:30:20;9.70;99.90
41904;DHT22;27586;51.124;4.182;2023-04-24T04:32:46;9.70;99.90
41904;DHT22;27586;51.124;4.182;2023-04-24T04:35:11;9.60;99.90
41904;DHT22;27586;51.124;4.182;2023-04-24T04:37:37;9.60;99.90
41904;DHT22;27586;51.124;4.182;2023-04-24T04:40:04;9.60;99.90
41904;DHT22;27586;51.124;4.182;2023-04-24T04:42:32;9.70;99.90
41904;DHT22;27586;51.124;4.182;2023-04-24T04:44:59;9.60;99.90
41904;DHT22;27586;51.124;4.182;2023-04-24T04:47:26;9.60;99.90
41904;DHT22;27586;51.124;4.182;2023-04-24T04:49:54;9.60;99.90
41904;DHT22;27586;51.124;4.182;2023-04-24T04:52:20;9.60;99.90
41904;DHT22;27586;51.124;4.182;2023-04-24T04:54:45;9.60;99.90
41904;DHT22;27586;51.124;4.182;2023-04-24T04:57:11;9.60;99.90
41904;DHT22;27586;51.124;4.182;2023-04-24T04:59:37;9.50;99.90
41904;DHT22;27586;51.124;4.182;2023-04-24T05:02:03;9.50;99.90
41904;DHT22;27586;51.124;4.182;2023-04-24T05:04:29;9.40;99.90
41904;DHT22;27586;51.124;4.182;2023-04-24T05:06:55;9.40;99.90
41904;DHT22;27586;51.124;4.182;2023-04-24T05:09:21;9.50;99.90
41904;DHT22;27586;51.124;4.182;2023-04-24T05:11:47;9.50;99.90
41904;DHT22;27586;51.124;4.182;2023-04-24T05:14:13;9.50;99.90
41904;DHT22;27586;51.124;4.182;2023-04-24T05:16:39;9.40;99.90
41904;DHT22;27586;51.124;4.182;2023-04-24T05:19:05;9.40;99.90
41904;DHT22;27586;51.124;4.182;2023-04-24T05:21:31;9.50;99.90
41904;DHT22;27586;51.124;4.182;2023-04-24T05:23:56;9.50;99.90
41904;DHT22;27586;51.124;4.182;2023-04-24T05:26:22;9.50;99.90
41904;DHT22;27586;51.124;4.182;2023-04-24T05:28:48;9.50;99.90
41904;DHT22;27586;51.124;4.182;2023-04-24T05:31:14;9.50;99.90
41904;DHT22;27586;51.124;4.182;2023-04-24T05:33:39;9.50;99.90
41904;DHT22;27586;51.124;4.182;2023-04-24T05:36:06;9.60;99.90
41904;DHT22;27586;51.124;4.182;2023-04-24T05:38:32;9.60;99.90
41904;DHT22;27586;51.124;4.182;2023-04-24T05:40:58;9.60;99.90
41904;DHT22;27586;51.124;4.182;2023-04-24T05:43:23;9.60;99.90
41904;DHT22;27586;51.124;4.182;2023-04-24T05:45:49;9.50;99.90
41904;DHT22;27586;51.124;4.182;2023-04-24T05:48:15;9.50;99.90
41904;DHT22;27586;51.124;4.182;2023-04-24T05:50:41;9.70;99.90
41904;DHT22;27586;51.124;4.182;2023-04-24T05:53:06;9.60;99.90
41904;DHT22;27586;51.124;4.182;2023-04-24T05:55:33;9.50;99.90
41904;DHT22;27586;51.124;4.182;2023-04-24T05:57:59;9.60;99.90
41904;DHT22;27586;51.124;4.182;2023-04-24T06:00:25;9.60;99.90
41904;DHT22;27586;51.124;4.182;2023-04-24T06:02:51;9.70;99.90
41904;DHT22;27586;51.124;4.182;2023-04-24T06:05:18;9.70;99.90
41904;DHT22;27586;51.124;4.182;2023-04-24T06:07:44;9.70;99.90
41904;DHT22;27586;51.124;4.182;2023-04-24T06:10:10;9.60;99.90
41904;DHT22;27586;51.124;4.182;2023-04-24T06:12:36;9.60;99.90
41904;DHT22;27586;51.124;4.182;2023-04-24T06:15:02;9.60;99.90
41904;DHT22;27586;51.124;4.182;2023-04-24T06:17:28;9.60;99.90
41904;DHT22;27586;51.124;4.182;2023-04-24T06:19:53;9.70;99.90
41904;DHT22;27586;51.124;4.182;2023-04-24T06:22:19;9.70;99.90
41904;DHT22;27586;51.124;4.182;2023-04-24T06:24:45;9.70;99.90
41904;DHT22;27586;51.124;4.182;2023-04-24T06:27:10;9.70;99.90
41904;DHT22;27586;51.124;4.182;2023-04-24T06:29:36;9.80;99.90
41904;DHT22;27586;51.124;4.182;2023-04-24T06:32:02;9.70;99.90
41904;DHT22;27586;51.124;4.182;2023-04-24T06:34:28;9.70;99.90
41904;DHT22;27586;51.124;4.182;2023-04-24T06:36:54;9.70;99.90
41904;DHT22;27586;51.124;4.182;2023-04-24T06:39:20;9.70;99.90
41904;DHT22;27586;51.124;4.182;2023-04-24T06:41:46;9.80;99.90
41904;DHT22;27586;51.124;4.182;2023-04-24T06:44:11;9.70;99.90
41904;DHT22;27586;51.124;4.182;2023-04-24T06:46:37;9.80;99.90
41904;DHT22;27586;51.124;4.182;2023-04-24T06:49:03;9.70;99.90
41904;DHT22;27586;51.124;4.182;2023-04-24T06:51:28;9.70;99.90
41904;DHT22;27586;51.124;4.182;2023-04-24T06:53:54;9.70;99.90
41904;DHT22;27586;51.124;4.182;2023-04-24T06:56:21;9.70;99.90
41904;DHT22;27586;51.124;4.182;2023-04-24T06:58:47;9.70;99.90
41904;DHT22;27586;51.124;4.182;2023-04-24T07:01:13;9.80;99.90
41904;DHT22;27586;51.124;4.182;2023-04-24T07:03:39;9.80;99.90
41904;DHT22;27586;51.124;4.182;2023-04-24T07:06:05;9.70;99.90
41904;DHT22;27586;51.124;4.182;2023-04-24T07:08:31;9.70;99.90
41904;DHT22;27586;51.124;4.182;2023-04-24T07:10:58;9.80;99.90
41904;DHT22;27586;51.124;4.182;2023-04-24T07:13:24;9.80;99.90
41904;DHT22;27586;51.124;4.182;2023-04-24T07:15:50;9.80;99.90
41904;DHT22;27586;51.124;4.182;2023-04-24T07:18:18;9.70;99.90
41904;DHT22;27586;51.124;4.182;2023-04-24T07:20:43;9.70;99.90
41904;DHT22;27586;51.124;4.182;2023-04-24T07:23:10;9.80;99.90
41904;DHT22;27586;51.124;4.182;2023-04-24T07:25:35;9.90;99.90
41904;DHT22;27586;51.124;4.182;2023-04-24T07:28:01;9.90;99.90
41904;DHT22;27586;51.124;4.182;2023-04-24T07:30:27;10.10;99.90
41904;DHT22;27586;51.124;4.182;2023-04-24T07:32:54;10.10;99.90
41904;DHT22;27586;51.124;4.182;2023-04-24T07:35:21;10.10;99.90
41904;DHT22;27586;51.124;4.182;2023-04-24T07:37:46;10.00;99.90
41904;DHT22;27586;51.124;4.182;2023-04-24T07:40:13;10.00;99.90
41904;DHT22;27586;51.124;4.182;2023-04-24T07:42:39;10.10;99.90
41904;DHT22;27586;51.124;4.182;2023-04-24T07:45:05;10.20;99.90
41904;DHT22;27586;51.124;4.182;2023-04-24T07:47:32;10.10;99.90
41904;DHT22;27586;51.124;4.182;2023-04-24T07:49:58;10.10;99.90
41904;DHT22;27586;51.124;4.182;2023-04-24T07:52:24;10.10;99.90
41904;DHT22;27586;51.124;4.182;2023-04-24T07:54:49;10.10;99.90
41904;DHT22;27586;51.124;4.182;2023-04-24T07:57:16;10.10;99.90
41904;DHT22;27586;51.124;4.182;2023-04-24T07:59:41;10.10;99.90
41904;DHT22;27586;51.124;4.182;2023-04-24T08:02:07;10.20;99.90
41904;DHT22;27586;51.124;4.182;2023-04-24T08:04:33;10.30;99.90
41904;DHT22;27586;51.124;4.182;2023-04-24T08:06:59;10.40;99.90
41904;DHT22;27586;51.124;4.182;2023-04-24T08:09:24;10.70;99.90
41904;DHT22;27586;51.124;4.182;2023-04-24T08:11:50;10.70;99.90
41904;DHT22;27586;51.124;4.182;2023-04-24T08:14:16;10.80;99.90
41904;DHT22;27586;51.124;4.182;2023-04-24T08:16:41;10.90;99.90
41904;DHT22;27586;51.124;4.182;2023-04-24T08:19:07;11.00;99.90
41904;DHT22;27586;51.124;4.182;2023-04-24T08:21:33;11.00;99.90
41904;DHT22;27586;51.124;4.182;2023-04-24T08:23:59;11.00;99.90
41904;DHT22;27586;51.124;4.182;2023-04-24T08:26:24;10.90;99.90
41904;DHT22;27586;51.124;4.182;2023-04-24T08:28:50;10.70;99.90
41904;DHT22;27586;51.124;4.182;2023-04-24T08:31:16;10.50;99.90
41904;DHT22;27586;51.124;4.182;2023-04-24T08:33:41;10.50;99.90
41904;DHT22;27586;51.124;4.182;2023-04-24T08:36:10;10.50;99.90
41904;DHT22;27586;51.124;4.182;2023-04-24T08:38:36;10.50;99.90
41904;DHT22;27586;51.124;4.182;2023-04-24T08:41:01;10.70;99.90
41904;DHT22;27586;51.124;4.182;2023-04-24T08:43:28;10.70;99.90
41904;DHT22;27586;51.124;4.182;2023-04-24T08:45:56;10.80;99.90
41904;DHT22;27586;51.124;4.182;2023-04-24T08:48:22;10.80;99.90
41904;DHT22;27586;51.124;4.182;2023-04-24T08:50:50;10.70;99.90
41904;DHT22;27586;51.124;4.182;2023-04-24T08:53:16;10.70;99.90
41904;DHT22;27586;51.124;4.182;2023-04-24T08:55:43;10.70;99.90
41904;DHT22;27586;51.124;4.182;2023-04-24T08:58:12;10.90;99.90
41904;DHT22;27586;51.124;4.182;2023-04-24T09:00:39;11.00;99.90
41904;DHT22;27586;51.124;4.182;2023-04-24T09:03:05;11.40;99.90
41904;DHT22;27586;51.124;4.182;2023-04-24T09:05:32;11.70;99.90
41904;DHT22;27586;51.124;4.182;2023-04-24T09:07:59;12.00;99.90
41904;DHT22;27586;51.124;4.182;2023-04-24T09:10:26;12.10;99.90
41904;DHT22;27586;51.124;4.182;2023-04-24T09:12:56;12.40;99.90
41904;DHT22;27586;51.124;4.182;2023-04-24T09:15:24;12.40;99.90
41904;DHT22;27586;51.124;4.182;2023-04-24T09:17:50;12.30;99.90
41904;DHT22;27586;51.124;4.182;2023-04-24T09:20:16;12.20;99.90
41904;DHT22;27586;51.124;4.182;2023-04-24T09:22:43;11.90;99.90
41904;DHT22;27586;51.124;4.182;2023-04-24T09:25:10;11.80;99.90
41904;DHT22;27586;51.124;4.182;2023-04-24T09:27:42;11.90;99.90
41904;DHT22;27586;51.124;4.182;2023-04-24T09:30:09;11.90;99.90
41904;DHT22;27586;51.124;4.182;2023-04-24T09:32:35;12.00;99.90
41904;DHT22;27586;51.124;4.182;2023-04-24T09:35:11;11.70;99.90
41904;DHT22;27586;51.124;4.182;2023-04-24T09:37:42;11.40;99.90
41904;DHT22;27586;51.124;4.182;2023-04-24T09:40:09;11.30;99.90
41904;DHT22;27586;51.124;4.182;2023-04-24T09:42:37;11.30;99.90
41904;DHT22;27586;51.124;4.182;2023-04-24T09:45:02;11.30;99.90
41904;DHT22;27586;51.124;4.182;2023-04-24T09:47:36;11.60;99.90
41904;DHT22;27586;51.124;4.182;2023-04-24T09:52:40;11.60;99.90
41904;DHT22;27586;51.124;4.182;2023-04-24T09:55:18;11.40;99.90
41904;DHT22;27586;51.124;4.182;2023-04-24T10:00:24;11.20;99.90
41904;DHT22;27586;51.124;4.182;2023-04-24T10:02:54;11.40;99.90
41904;DHT22;27586;51.124;4.182;2023-04-24T10:05:23;11.60;99.90
41904;DHT22;27586;51.124;4.182;2023-04-24T10:07:49;11.60;99.90
41904;DHT22;27586;51.124;4.182;2023-04-24T10:10:14;11.80;99.90
41904;DHT22;27586;51.124;4.182;2023-04-24T10:12:40;11.80;99.90
41904;DHT22;27586;51.124;4.182;2023-04-24T10:15:09;11.70;99.90
41904;DHT22;27586;51.124;4.182;2023-04-24T10:17:35;11.80;99.90
41904;DHT22;27586;51.124;4.182;2023-04-24T10:20:01;11.80;99.90
41904;DHT22;27586;51.124;4.182;2023-04-24T10:22:28;11.80;99.90
41904;DHT22;27586;51.124;4.182;2023-04-24T10:24:56;11.70;99.90
41904;DHT22;27586;51.124;4.182;2023-04-24T10:27:23;11.60;99.90
41904;DHT22;27586;51.124;4.182;2023-04-24T10:29:51;11.70;99.90
41904;DHT22;27586;51.124;4.182;2023-04-24T10:32:18;12.00;99.90
41904;DHT22;27586;51.124;4.182;2023-04-24T10:34:44;12.10;99.90
41904;DHT22;27586;51.124;4.182;2023-04-24T10:37:09;12.10;99.90
41904;DHT22;27586;51.124;4.182;2023-04-24T10:39:35;12.00;99.90
41904;DHT22;27586;51.124;4.182;2023-04-24T10:42:14;11.80;99.90
41904;DHT22;27586;51.124;4.182;2023-04-24T10:44:41;11.80;99.90
41904;DHT22;27586;51.124;4.182;2023-04-24T10:47:12;11.80;99.90
41904;DHT22;27586;51.124;4.182;2023-04-24T10:49:39;11.80;99.90
41904;DHT22;27586;51.124;4.182;2023-04-24T10:52:05;11.90;99.90
41904;DHT22;27586;51.124;4.182;2023-04-24T10:54:41;12.00;99.90
41904;DHT22;27586;51.124;4.182;2023-04-24T10:59:50;12.20;99.90
41904;DHT22;27586;51.124;4.182;2023-04-24T11:02:20;12.50;99.90
41904;DHT22;27586;51.124;4.182;2023-04-24T11:05:03;12.50;99.90
41904;DHT22;27586;51.124;4.182;2023-04-24T11:07:29;12.70;99.90
41904;DHT22;27586;51.124;4.182;2023-04-24T11:09:58;12.80;99.90
41904;DHT22;27586;51.124;4.182;2023-04-24T11:12:26;13.00;99.90
41904;DHT22;27586;51.124;4.182;2023-04-24T11:17:35;13.30;99.90
41904;DHT22;27586;51.124;4.182;2023-04-24T11:20:08;13.70;99.90
41904;DHT22;27586;51.124;4.182;2023-04-24T11:22:38;13.80;99.90
41904;DHT22;27586;51.124;4.182;2023-04-24T11:25:08;13.80;99.90
41904;DHT22;27586;51.124;4.182;2023-04-24T11:27:44;13.70;99.90
41904;DHT22;27586;51.124;4.182;2023-04-24T11:30:17;13.60;99.90
41904;DHT22;27586;51.124;4.182;2023-04-24T11:32:47;13.50;99.90
41904;DHT22;27586;51.124;4.182;2023-04-24T11:35:18;13.50;99.90
41904;DHT22;27586;51.124;4.182;2023-04-24T11:37:46;13.20;99.90
41904;DHT22;27586;51.124;4.182;2023-04-24T11:40:14;13.00;99.90
41904;DHT22;27586;51.124;4.182;2023-04-24T11:42:44;13.00;99.90
41904;DHT22;27586;51.124;4.182;2023-04-24T11:45:16;13.50;99.90
41904;DHT22;27586;51.124;4.182;2023-04-24T11:47:43;14.00;99.90
41904;DHT22;27586;51.124;4.182;2023-04-24T11:50:11;14.30;99.90
41904;DHT22;27586;51.124;4.182;2023-04-24T11:52:39;14.60;99.90
41904;DHT22;27586;51.124;4.182;2023-04-24T11:55:07;14.90;99.90
41904;DHT22;27586;51.124;4.182;2023-04-24T11:57:34;15.10;99.90
41904;DHT22;27586;51.124;4.182;2023-04-24T12:00:03;15.20;99.90
41904;DHT22;27586;51.124;4.182;2023-04-24T12:02:30;15.30;99.90
41904;DHT22;27586;51.124;4.182;2023-04-24T12:04:56;15.20;99.90
41904;DHT22;27586;51.124;4.182;2023-04-24T12:07:23;14.80;99.90
41904;DHT22;27586;51.124;4.182;2023-04-24T12:09:59;14.50;99.90
41904;DHT22;27586;51.124;4.182;2023-04-24T12:12:28;14.10;99.90
41904;DHT22;27586;51.124;4.182;2023-04-24T12:14:58;13.90;99.90
41904;DHT22;27586;51.124;4.182;2023-04-24T12:19:51;13.50;99.90
41904;DHT22;27586;51.124;4.182;2023-04-24T12:22:16;13.30;99.90
41904;DHT22;27586;51.124;4.182;2023-04-24T12:25:09;13.20;99.90
41904;DHT22;27586;51.124;4.182;2023-04-24T12:27:35;13.00;99.90
41904;DHT22;27586;51.124;4.182;2023-04-24T12:30:04;12.90;99.90
41904;DHT22;27586;51.124;4.182;2023-04-24T12:32:30;12.90;99.90
41904;DHT22;27586;51.124;4.182;2023-04-24T12:34:56;12.90;99.90
41904;DHT22;27586;51.124;4.182;2023-04-24T12:37:26;13.10;99.90
41904;DHT22;27586;51.124;4.182;2023-04-24T12:40:10;13.40;99.90
41904;DHT22;27586;51.124;4.182;2023-04-24T12:42:48;13.70;99.90
41904;DHT22;27586;51.124;4.182;2023-04-24T12:45:15;13.70;99.90
41904;DHT22;27586;51.124;4.182;2023-04-24T12:47:42;13.90;99.90
41904;DHT22;27586;51.124;4.182;2023-04-24T12:50:10;14.10;99.90
41904;DHT22;27586;51.124;4.182;2023-04-24T12:52:37;13.90;99.90
41904;DHT22;27586;51.124;4.182;2023-04-24T12:55:03;13.90;99.90
41904;DHT22;27586;51.124;4.182;2023-04-24T12:57:30;13.50;99.90
41904;DHT22;27586;51.124;4.182;2023-04-24T12:59:58;13.20;99.90
41904;DHT22;27586;51.124;4.182;2023-04-24T13:02:24;13.10;99.90
41904;DHT22;27586;51.124;4.182;2023-04-24T13:04:51;13.20;99.90
41904;DHT22;27586;51.124;4.182;2023-04-24T13:07:17;13.10;99.90
41904;DHT22;27586;51.124;4.182;2023-04-24T13:09:43;13.10;99.90
41904;DHT22;27586;51.124;4.182;2023-04-24T13:12:10;13.30;99.90
41904;DHT22;27586;51.124;4.182;2023-04-24T13:14:36;13.30;99.90
41904;DHT22;27586;51.124;4.182;2023-04-24T13:17:02;13.40;99.90
41904;DHT22;27586;51.124;4.182;2023-04-24T13:19:28;13.60;99.90
41904;DHT22;27586;51.124;4.182;2023-04-24T13:21:55;13.60;99.90
41904;DHT22;27586;51.124;4.182;2023-04-24T13:24:25;13.60;99.90
41904;DHT22;27586;51.124;4.182;2023-04-24T13:26:52;13.80;99.90
41904;DHT22;27586;51.124;4.182;2023-04-24T13:29:18;13.90;99.90
41904;DHT22;27586;51.124;4.182;2023-04-24T13:31:43;13.80;99.90
41904;DHT22;27586;51.124;4.182;2023-04-24T13:34:10;14.00;99.90
41904;DHT22;27586;51.124;4.182;2023-04-24T13:36:36;13.90;99.90
41904;DHT22;27586;51.124;4.182;2023-04-24T13:39:02;13.80;99.90
41904;DHT22;27586;51.124;4.182;2023-04-24T13:41:30;13.90;99.90
41904;DHT22;27586;51.124;4.182;2023-04-24T13:43:55;14.10;99.90
41904;DHT22;27586;51.124;4.182;2023-04-24T13:46:21;14.20;99.90
41904;DHT22;27586;51.124;4.182;2023-04-24T13:48:47;14.50;99.90
41904;DHT22;27586;51.124;4.182;2023-04-24T13:51:13;14.60;99.90
41904;DHT22;27586;51.124;4.182;2023-04-24T13:53:39;14.50;99.90
41904;DHT22;27586;51.124;4.182;2023-04-24T13:56:05;14.10;99.90
41904;DHT22;27586;51.124;4.182;2023-04-24T13:58:35;13.40;99.90
41904;DHT22;27586;51.124;4.182;2023-04-24T14:01:02;13.60;99.90
41904;DHT22;27586;51.124;4.182;2023-04-24T14:03:28;13.70;99.90
41904;DHT22;27586;51.124;4.182;2023-04-24T14:05:54;13.80;99.90
41904;DHT22;27586;51.124;4.182;2023-04-24T14:08:20;13.40;99.90
41904;DHT22;27586;51.124;4.182;2023-04-24T14:10:46;13.40;99.90
41904;DHT22;27586;51.124;4.182;2023-04-24T14:13:11;13.20;99.90
41904;DHT22;27586;51.124;4.182;2023-04-24T14:15:37;13.30;99.90
41904;DHT22;27586;51.124;4.182;2023-04-24T14:18:03;13.20;99.90
41904;DHT22;27586;51.124;4.182;2023-04-24T14:20:29;13.30;99.90
41904;DHT22;27586;51.124;4.182;2023-04-24T14:22:55;13.50;99.90
41904;DHT22;27586;51.124;4.182;2023-04-24T14:25:20;13.60;99.90
41904;DHT22;27586;51.124;4.182;2023-04-24T14:27:47;13.20;99.90
41904;DHT22;27586;51.124;4.182;2023-04-24T14:30:13;12.60;99.90
41904;DHT22;27586;51.124;4.182;2023-04-24T14:32:40;12.40;99.90
41904;DHT22;27586;51.124;4.182;2023-04-24T14:35:06;12.30;99.90
41904;DHT22;27586;51.124;4.182;2023-04-24T14:37:32;12.30;99.90
41904;DHT22;27586;51.124;4.182;2023-04-24T14:39:58;12.30;99.90
41904;DHT22;27586;51.124;4.182;2023-04-24T14:42:24;12.60;99.90
41904;DHT22;27586;51.124;4.182;2023-04-24T14:44:51;12.70;99.90
41904;DHT22;27586;51.124;4.182;2023-04-24T14:47:17;12.90;99.90
41904;DHT22;27586;51.124;4.182;2023-04-24T14:49:45;13.00;99.90
41904;DHT22;27586;51.124;4.182;2023-04-24T14:52:10;13.20;99.90
41904;DHT22;27586;51.124;4.182;2023-04-24T14:54:36;13.10;99.90
41904;DHT22;27586;51.124;4.182;2023-04-24T14:57:02;13.20;99.90
41904;DHT22;27586;51.124;4.182;2023-04-24T14:59:28;13.20;99.90
41904;DHT22;27586;51.124;4.182;2023-04-24T15:01:54;13.20;99.90
41904;DHT22;27586;51.124;4.182;2023-04-24T15:04:24;13.00;99.90
41904;DHT22;27586;51.124;4.182;2023-04-24T15:06:51;12.70;99.90
41904;DHT22;27586;51.124;4.182;2023-04-24T15:09:17;12.50;99.90
41904;DHT22;27586;51.124;4.182;2023-04-24T15:11:42;12.40;99.90
41904;DHT22;27586;51.124;4.182;2023-04-24T15:14:08;12.40;99.90
41904;DHT22;27586;51.124;4.182;2023-04-24T15:16:34;12.50;99.90
41904;DHT22;27586;51.124;4.182;2023-04-24T15:18:59;12.30;99.90
41904;DHT22;27586;51.124;4.182;2023-04-24T15:21:25;12.20;99.90
41904;DHT22;27586;51.124;4.182;2023-04-24T15:23:51;12.30;99.90
41904;DHT22;27586;51.124;4.182;2023-04-24T15:26:17;12.60;99.90
41904;DHT22;27586;51.124;4.182;2023-04-24T15:28:42;12.60;99.90
41904;DHT22;27586;51.124;4.182;2023-04-24T15:31:08;12.60;99.90
41904;DHT22;27586;51.124;4.182;2023-04-24T15:33:34;12.70;99.90
41904;DHT22;27586;51.124;4.182;2023-04-24T15:35:59;12.50;99.90
41904;DHT22;27586;51.124;4.182;2023-04-24T15:38:25;12.30;99.90
41904;DHT22;27586;51.124;4.182;2023-04-24T15:40:51;12.40;99.90
41904;DHT22;27586;51.124;4.182;2023-04-24T15:43:16;12.40;99.90